sensor_id;sensor_type;location;lat;lon;timestamp;P1;durP1;ratioP1;P2;durP2;ratioP2
44764;SDS011;30484;52.382;5.260;2023-12-22T00:00:34;12.75;;;1.77;;
44764;SDS011;30484;52.382;5.260;2023-12-22T00:03:02;16.40;;;1.90;;
44764;SDS011;30484;52.382;5.260;2023-12-22T00:05:31;11.52;;;1.50;;
44764;SDS011;30484;52.382;5.260;2023-12-22T00:07:59;9.57;;;1.88;;
44764;SDS011;30484;52.382;5.260;2023-12-22T00:10:29;10.70;;;1.58;;
44764;SDS011;30484;52.382;5.260;2023-12-22T00:12:57;16.67;;;1.50;;
44764;SDS011;30484;52.382;5.260;2023-12-22T00:15:25;7.47;;;1.60;;
44764;SDS011;30484;52.382;5.260;2023-12-22T00:17:53;9.50;;;1.70;;
44764;SDS011;30484;52.382;5.260;2023-12-22T00:20:22;12.05;;;1.60;;
44764;SDS011;30484;52.382;5.260;2023-12-22T00:22:50;16.67;;;2.10;;
44764;SDS011;30484;52.382;5.260;2023-12-22T00:25:18;15.70;;;1.70;;
44764;SDS011;30484;52.382;5.260;2023-12-22T00:27:48;13.48;;;1.70;;
44764;SDS011;30484;52.382;5.260;2023-12-22T00:30:16;11.35;;;1.55;;
44764;SDS011;30484;52.382;5.260;2023-12-22T00:32:44;17.15;;;2.25;;
44764;SDS011;30484;52.382;5.260;2023-12-22T00:35:13;13.45;;;1.75;;
44764;SDS011;30484;52.382;5.260;2023-12-22T00:37:41;13.55;;;1.85;;
44764;SDS011;30484;52.382;5.260;2023-12-22T00:40:10;17.67;;;2.20;;
44764;SDS011;30484;52.382;5.260;2023-12-22T00:42:39;15.48;;;2.20;;
44764;SDS011;30484;52.382;5.260;2023-12-22T00:45:10;14.07;;;2.17;;
44764;SDS011;30484;52.382;5.260;2023-12-22T00:47:39;12.40;;;1.67;;
44764;SDS011;30484;52.382;5.260;2023-12-22T00:50:07;11.18;;;1.58;;
44764;SDS011;30484;52.382;5.260;2023-12-22T00:52:36;14.80;;;1.70;;
44764;SDS011;30484;52.382;5.260;2023-12-22T00:55:05;19.38;;;1.80;;
44764;SDS011;30484;52.382;5.260;2023-12-22T00:57:34;11.45;;;1.98;;
44764;SDS011;30484;52.382;5.260;2023-12-22T01:00:02;16.95;;;2.63;;
44764;SDS011;30484;52.382;5.260;2023-12-22T01:02:36;16.05;;;2.03;;
44764;SDS011;30484;52.382;5.260;2023-12-22T01:05:05;20.45;;;1.75;;
44764;SDS011;30484;52.382;5.260;2023-12-22T01:07:34;8.68;;;1.58;;
44764;SDS011;30484;52.382;5.260;2023-12-22T01:10:03;13.73;;;1.92;;
44764;SDS011;30484;52.382;5.260;2023-12-22T01:12:32;14.35;;;1.80;;
44764;SDS011;30484;52.382;5.260;2023-12-22T01:15:00;19.65;;;2.38;;
44764;SDS011;30484;52.382;5.260;2023-12-22T01:17:29;19.05;;;2.10;;
44764;SDS011;30484;52.382;5.260;2023-12-22T01:19:59;19.40;;;2.40;;
44764;SDS011;30484;52.382;5.260;2023-12-22T01:22:27;18.38;;;2.75;;
44764;SDS011;30484;52.382;5.260;2023-12-22T01:24:57;14.35;;;2.05;;
44764;SDS011;30484;52.382;5.260;2023-12-22T01:27:26;13.23;;;2.22;;
44764;SDS011;30484;52.382;5.260;2023-12-22T01:29:54;27.00;;;3.00;;
44764;SDS011;30484;52.382;5.260;2023-12-22T01:32:22;22.05;;;2.70;;
44764;SDS011;30484;52.382;5.260;2023-12-22T01:34:50;36.20;;;3.30;;
44764;SDS011;30484;52.382;5.260;2023-12-22T01:37:20;29.75;;;3.50;;
44764;SDS011;30484;52.382;5.260;2023-12-22T01:39:49;28.58;;;2.97;;
44764;SDS011;30484;52.382;5.260;2023-12-22T01:42:18;21.75;;;2.97;;
44764;SDS011;30484;52.382;5.260;2023-12-22T01:44:46;32.90;;;3.55;;
44764;SDS011;30484;52.382;5.260;2023-12-22T01:47:14;19.80;;;3.60;;
44764;SDS011;30484;52.382;5.260;2023-12-22T01:49:42;32.22;;;3.55;;
44764;SDS011;30484;52.382;5.260;2023-12-22T01:52:10;20.25;;;3.15;;
44764;SDS011;30484;52.382;5.260;2023-12-22T01:54:40;43.33;;;4.25;;
44764;SDS011;30484;52.382;5.260;2023-12-22T01:57:09;26.85;;;3.10;;
44764;SDS011;30484;52.382;5.260;2023-12-22T01:59:41;21.85;;;3.13;;
44764;SDS011;30484;52.382;5.260;2023-12-22T02:02:09;25.00;;;3.28;;
44764;SDS011;30484;52.382;5.260;2023-12-22T02:04:38;36.05;;;4.10;;
44764;SDS011;30484;52.382;5.260;2023-12-22T02:07:08;23.23;;;3.53;;
44764;SDS011;30484;52.382;5.260;2023-12-22T02:09:37;37.45;;;4.40;;
44764;SDS011;30484;52.382;5.260;2023-12-22T02:12:06;25.05;;;3.42;;
44764;SDS011;30484;52.382;5.260;2023-12-22T02:14:35;44.30;;;4.10;;
44764;SDS011;30484;52.382;5.260;2023-12-22T02:17:09;28.30;;;3.75;;
44764;SDS011;30484;52.382;5.260;2023-12-22T02:19:48;31.70;;;3.75;;
44764;SDS011;30484;52.382;5.260;2023-12-22T02:22:18;29.73;;;3.13;;
44764;SDS011;30484;52.382;5.260;2023-12-22T02:24:47;47.15;;;4.18;;
44764;SDS011;30484;52.382;5.260;2023-12-22T02:27:19;31.08;;;3.80;;
44764;SDS011;30484;52.382;5.260;2023-12-22T02:29:57;23.70;;;2.70;;
44764;SDS011;30484;52.382;5.260;2023-12-22T02:32:35;17.00;;;2.05;;
44764;SDS011;30484;52.382;5.260;2023-12-22T02:35:08;14.88;;;1.60;;
44764;SDS011;30484;52.382;5.260;2023-12-22T02:37:42;13.80;;;1.67;;
44764;SDS011;30484;52.382;5.260;2023-12-22T02:40:14;15.93;;;2.17;;
44764;SDS011;30484;52.382;5.260;2023-12-22T02:42:43;9.38;;;1.52;;
44764;SDS011;30484;52.382;5.260;2023-12-22T02:45:12;16.48;;;1.15;;
44764;SDS011;30484;52.382;5.260;2023-12-22T02:47:43;19.10;;;1.70;;
44764;SDS011;30484;52.382;5.260;2023-12-22T02:50:12;17.98;;;2.40;;
44764;SDS011;30484;52.382;5.260;2023-12-22T02:52:42;10.23;;;1.98;;
44764;SDS011;30484;52.382;5.260;2023-12-22T02:55:11;13.43;;;1.92;;
44764;SDS011;30484;52.382;5.260;2023-12-22T02:57:41;20.58;;;1.98;;
44764;SDS011;30484;52.382;5.260;2023-12-22T03:00:09;10.13;;;1.60;;
44764;SDS011;30484;52.382;5.260;2023-12-22T03:02:38;10.43;;;1.33;;
44764;SDS011;30484;52.382;5.260;2023-12-22T03:05:07;15.32;;;1.85;;
44764;SDS011;30484;52.382;5.260;2023-12-22T03:07:35;21.13;;;1.95;;
44764;SDS011;30484;52.382;5.260;2023-12-22T03:10:04;12.98;;;1.75;;
44764;SDS011;30484;52.382;5.260;2023-12-22T03:12:33;14.52;;;2.15;;
44764;SDS011;30484;52.382;5.260;2023-12-22T03:15:03;12.43;;;2.22;;
44764;SDS011;30484;52.382;5.260;2023-12-22T03:17:32;18.17;;;2.17;;
44764;SDS011;30484;52.382;5.260;2023-12-22T03:20:01;19.27;;;2.13;;
44764;SDS011;30484;52.382;5.260;2023-12-22T03:22:30;20.13;;;2.47;;
44764;SDS011;30484;52.382;5.260;2023-12-22T03:24:58;27.98;;;2.80;;
44764;SDS011;30484;52.382;5.260;2023-12-22T03:27:26;24.75;;;2.33;;
44764;SDS011;30484;52.382;5.260;2023-12-22T03:29:54;24.40;;;2.55;;
44764;SDS011;30484;52.382;5.260;2023-12-22T03:32:24;14.30;;;2.30;;
44764;SDS011;30484;52.382;5.260;2023-12-22T03:34:52;20.13;;;3.20;;
44764;SDS011;30484;52.382;5.260;2023-12-22T03:37:21;22.08;;;2.42;;
44764;SDS011;30484;52.382;5.260;2023-12-22T03:39:49;25.75;;;2.53;;
44764;SDS011;30484;52.382;5.260;2023-12-22T03:42:17;32.92;;;3.45;;
44764;SDS011;30484;52.382;5.260;2023-12-22T03:44:45;20.25;;;2.45;;
44764;SDS011;30484;52.382;5.260;2023-12-22T03:47:13;22.70;;;2.33;;
44764;SDS011;30484;52.382;5.260;2023-12-22T03:49:44;25.17;;;2.88;;
44764;SDS011;30484;52.382;5.260;2023-12-22T03:52:12;29.58;;;2.60;;
44764;SDS011;30484;52.382;5.260;2023-12-22T03:54:41;34.20;;;3.20;;
44764;SDS011;30484;52.382;5.260;2023-12-22T03:57:09;31.98;;;2.78;;
44764;SDS011;30484;52.382;5.260;2023-12-22T03:59:37;42.88;;;3.97;;
44764;SDS011;30484;52.382;5.260;2023-12-22T04:02:06;37.97;;;3.63;;
44764;SDS011;30484;52.382;5.260;2023-12-22T04:04:37;32.80;;;3.40;;
44764;SDS011;30484;52.382;5.260;2023-12-22T04:07:07;42.95;;;3.88;;
44764;SDS011;30484;52.382;5.260;2023-12-22T04:09:36;38.50;;;4.05;;
44764;SDS011;30484;52.382;5.260;2023-12-22T04:12:06;52.75;;;3.85;;
44764;SDS011;30484;52.382;5.260;2023-12-22T04:14:34;42.45;;;3.53;;
44764;SDS011;30484;52.382;5.260;2023-12-22T04:17:03;43.20;;;4.07;;
44764;SDS011;30484;52.382;5.260;2023-12-22T04:19:31;32.70;;;2.92;;
44764;SDS011;30484;52.382;5.260;2023-12-22T04:21:59;31.95;;;2.72;;
44764;SDS011;30484;52.382;5.260;2023-12-22T04:24:29;23.98;;;2.90;;
44764;SDS011;30484;52.382;5.260;2023-12-22T04:26:57;34.63;;;3.80;;
44764;SDS011;30484;52.382;5.260;2023-12-22T04:29:25;32.22;;;3.08;;
44764;SDS011;30484;52.382;5.260;2023-12-22T04:31:53;30.33;;;2.97;;
44764;SDS011;30484;52.382;5.260;2023-12-22T04:34:21;28.98;;;3.03;;
44764;SDS011;30484;52.382;5.260;2023-12-22T04:36:50;28.63;;;3.03;;
44764;SDS011;30484;52.382;5.260;2023-12-22T04:39:18;31.42;;;2.70;;
44764;SDS011;30484;52.382;5.260;2023-12-22T04:41:50;24.67;;;3.50;;
44764;SDS011;30484;52.382;5.260;2023-12-22T04:44:18;31.30;;;3.22;;
44764;SDS011;30484;52.382;5.260;2023-12-22T04:46:47;33.92;;;2.88;;
44764;SDS011;30484;52.382;5.260;2023-12-22T04:49:15;34.50;;;3.63;;
44764;SDS011;30484;52.382;5.260;2023-12-22T04:51:43;28.02;;;4.07;;
44764;SDS011;30484;52.382;5.260;2023-12-22T04:54:11;36.75;;;3.72;;
44764;SDS011;30484;52.382;5.260;2023-12-22T04:56:39;35.65;;;3.72;;
44764;SDS011;30484;52.382;5.260;2023-12-22T04:59:09;38.38;;;3.42;;
44764;SDS011;30484;52.382;5.260;2023-12-22T05:01:37;41.95;;;3.63;;
44764;SDS011;30484;52.382;5.260;2023-12-22T05:04:06;31.13;;;4.25;;
44764;SDS011;30484;52.382;5.260;2023-12-22T05:06:37;38.40;;;3.47;;
44764;SDS011;30484;52.382;5.260;2023-12-22T05:09:05;39.92;;;4.15;;
44764;SDS011;30484;52.382;5.260;2023-12-22T05:11:34;46.55;;;3.80;;
44764;SDS011;30484;52.382;5.260;2023-12-22T05:14:02;39.85;;;3.90;;
44764;SDS011;30484;52.382;5.260;2023-12-22T05:16:32;36.33;;;4.45;;
44764;SDS011;30484;52.382;5.260;2023-12-22T05:19:01;47.05;;;4.53;;
44764;SDS011;30484;52.382;5.260;2023-12-22T05:21:29;47.65;;;5.05;;
44764;SDS011;30484;52.382;5.260;2023-12-22T05:23:57;51.05;;;5.05;;
44764;SDS011;30484;52.382;5.260;2023-12-22T05:26:25;43.30;;;3.72;;
44764;SDS011;30484;52.382;5.260;2023-12-22T05:28:56;56.47;;;4.97;;
44764;SDS011;30484;52.382;5.260;2023-12-22T05:31:24;41.20;;;4.63;;
44764;SDS011;30484;52.382;5.260;2023-12-22T05:33:55;33.60;;;4.18;;
44764;SDS011;30484;52.382;5.260;2023-12-22T05:36:23;53.38;;;4.38;;
44764;SDS011;30484;52.382;5.260;2023-12-22T05:38:52;30.33;;;3.55;;
44764;SDS011;30484;52.382;5.260;2023-12-22T05:41:21;39.80;;;4.22;;
44764;SDS011;30484;52.382;5.260;2023-12-22T05:43:49;45.33;;;5.90;;
44764;SDS011;30484;52.382;5.260;2023-12-22T05:46:17;33.78;;;4.07;;
44764;SDS011;30484;52.382;5.260;2023-12-22T05:48:46;36.40;;;3.60;;
44764;SDS011;30484;52.382;5.260;2023-12-22T05:51:15;37.53;;;4.72;;
44764;SDS011;30484;52.382;5.260;2023-12-22T05:53:43;38.95;;;4.80;;
44764;SDS011;30484;52.382;5.260;2023-12-22T05:56:17;32.10;;;3.65;;
44764;SDS011;30484;52.382;5.260;2023-12-22T05:58:46;28.90;;;3.58;;
44764;SDS011;30484;52.382;5.260;2023-12-22T06:01:16;26.25;;;2.83;;
44764;SDS011;30484;52.382;5.260;2023-12-22T06:03:45;29.75;;;3.28;;
44764;SDS011;30484;52.382;5.260;2023-12-22T06:06:16;35.72;;;4.43;;
44764;SDS011;30484;52.382;5.260;2023-12-22T06:08:44;38.92;;;3.30;;
44764;SDS011;30484;52.382;5.260;2023-12-22T06:11:13;30.85;;;3.70;;
44764;SDS011;30484;52.382;5.260;2023-12-22T06:13:41;42.78;;;4.05;;
44764;SDS011;30484;52.382;5.260;2023-12-22T06:16:13;35.08;;;4.15;;
44764;SDS011;30484;52.382;5.260;2023-12-22T06:18:42;27.73;;;3.60;;
44764;SDS011;30484;52.382;5.260;2023-12-22T06:21:10;31.30;;;3.90;;
44764;SDS011;30484;52.382;5.260;2023-12-22T06:23:40;28.95;;;3.88;;
44764;SDS011;30484;52.382;5.260;2023-12-22T06:26:08;27.77;;;3.65;;
44764;SDS011;30484;52.382;5.260;2023-12-22T06:28:37;31.58;;;3.45;;
44764;SDS011;30484;52.382;5.260;2023-12-22T06:31:07;30.90;;;3.47;;
44764;SDS011;30484;52.382;5.260;2023-12-22T06:33:44;33.88;;;4.20;;
44764;SDS011;30484;52.382;5.260;2023-12-22T06:36:17;31.25;;;3.90;;
44764;SDS011;30484;52.382;5.260;2023-12-22T06:38:48;28.38;;;3.70;;
44764;SDS011;30484;52.382;5.260;2023-12-22T06:41:20;32.92;;;3.50;;
44764;SDS011;30484;52.382;5.260;2023-12-22T06:43:53;33.72;;;3.88;;
44764;SDS011;30484;52.382;5.260;2023-12-22T06:46:24;32.63;;;4.22;;
44764;SDS011;30484;52.382;5.260;2023-12-22T06:48:54;47.00;;;4.75;;
44764;SDS011;30484;52.382;5.260;2023-12-22T06:51:24;38.58;;;4.45;;
44764;SDS011;30484;52.382;5.260;2023-12-22T06:53:55;37.10;;;4.00;;
44764;SDS011;30484;52.382;5.260;2023-12-22T06:56:28;46.05;;;5.10;;
44764;SDS011;30484;52.382;5.260;2023-12-22T06:58:57;28.20;;;4.18;;
44764;SDS011;30484;52.382;5.260;2023-12-22T07:01:27;38.47;;;5.00;;
44764;SDS011;30484;52.382;5.260;2023-12-22T07:03:57;45.35;;;5.13;;
44764;SDS011;30484;52.382;5.260;2023-12-22T07:06:28;35.45;;;4.93;;
44764;SDS011;30484;52.382;5.260;2023-12-22T07:11:59;51.22;;;5.35;;
44764;SDS011;30484;52.382;5.260;2023-12-22T07:14:27;36.45;;;4.07;;
44764;SDS011;30484;52.382;5.260;2023-12-22T07:16:55;39.22;;;5.47;;
44764;SDS011;30484;52.382;5.260;2023-12-22T07:19:26;31.30;;;4.65;;
44764;SDS011;30484;52.382;5.260;2023-12-22T07:21:55;49.97;;;5.57;;
44764;SDS011;30484;52.382;5.260;2023-12-22T07:24:23;32.83;;;5.40;;
44764;SDS011;30484;52.382;5.260;2023-12-22T07:26:52;36.03;;;5.30;;
44764;SDS011;30484;52.382;5.260;2023-12-22T07:29:21;42.03;;;4.97;;
44764;SDS011;30484;52.382;5.260;2023-12-22T07:31:50;45.72;;;4.90;;
44764;SDS011;30484;52.382;5.260;2023-12-22T07:34:18;46.28;;;4.88;;
44764;SDS011;30484;52.382;5.260;2023-12-22T07:36:48;45.30;;;4.88;;
44764;SDS011;30484;52.382;5.260;2023-12-22T07:39:31;43.40;;;5.15;;
44764;SDS011;30484;52.382;5.260;2023-12-22T07:42:03;28.38;;;4.82;;
44764;SDS011;30484;52.382;5.260;2023-12-22T07:44:33;37.10;;;4.32;;
44764;SDS011;30484;52.382;5.260;2023-12-22T07:47:01;30.95;;;3.97;;
44764;SDS011;30484;52.382;5.260;2023-12-22T07:49:29;37.08;;;5.10;;
44764;SDS011;30484;52.382;5.260;2023-12-22T07:51:58;36.25;;;4.78;;
44764;SDS011;30484;52.382;5.260;2023-12-22T07:54:29;42.00;;;4.68;;
44764;SDS011;30484;52.382;5.260;2023-12-22T07:56:57;34.38;;;4.43;;
44764;SDS011;30484;52.382;5.260;2023-12-22T07:59:28;31.35;;;4.13;;
44764;SDS011;30484;52.382;5.260;2023-12-22T08:01:58;35.08;;;4.65;;
44764;SDS011;30484;52.382;5.260;2023-12-22T08:04:27;32.42;;;4.30;;
44764;SDS011;30484;52.382;5.260;2023-12-22T08:06:55;42.20;;;5.13;;
44764;SDS011;30484;52.382;5.260;2023-12-22T08:09:24;41.08;;;4.82;;
44764;SDS011;30484;52.382;5.260;2023-12-22T08:11:52;58.17;;;6.88;;
44764;SDS011;30484;52.382;5.260;2023-12-22T08:14:22;38.65;;;4.43;;
44764;SDS011;30484;52.382;5.260;2023-12-22T08:16:51;35.25;;;4.55;;
44764;SDS011;30484;52.382;5.260;2023-12-22T08:19:20;32.88;;;4.47;;
44764;SDS011;30484;52.382;5.260;2023-12-22T08:21:52;39.25;;;5.53;;
44764;SDS011;30484;52.382;5.260;2023-12-22T08:24:21;53.25;;;4.85;;
44764;SDS011;30484;52.382;5.260;2023-12-22T08:26:49;47.60;;;5.88;;
44764;SDS011;30484;52.382;5.260;2023-12-22T08:29:18;31.85;;;4.30;;
44764;SDS011;30484;52.382;5.260;2023-12-22T08:31:46;40.45;;;4.20;;
44764;SDS011;30484;52.382;5.260;2023-12-22T08:34:16;42.88;;;4.65;;
44764;SDS011;30484;52.382;5.260;2023-12-22T08:36:44;30.98;;;4.15;;
44764;SDS011;30484;52.382;5.260;2023-12-22T08:39:13;36.78;;;4.22;;
44764;SDS011;30484;52.382;5.260;2023-12-22T08:41:41;44.92;;;5.57;;
44764;SDS011;30484;52.382;5.260;2023-12-22T08:44:10;33.60;;;4.55;;
44764;SDS011;30484;52.382;5.260;2023-12-22T08:46:41;45.88;;;5.13;;
44764;SDS011;30484;52.382;5.260;2023-12-22T08:49:09;41.40;;;4.55;;
44764;SDS011;30484;52.382;5.260;2023-12-22T08:51:39;37.85;;;5.97;;
44764;SDS011;30484;52.382;5.260;2023-12-22T08:54:08;37.88;;;5.05;;
44764;SDS011;30484;52.382;5.260;2023-12-22T08:56:36;43.70;;;6.00;;
44764;SDS011;30484;52.382;5.260;2023-12-22T08:59:04;46.63;;;4.93;;
44764;SDS011;30484;52.382;5.260;2023-12-22T09:01:35;37.33;;;4.60;;
44764;SDS011;30484;52.382;5.260;2023-12-22T09:04:03;31.35;;;4.38;;
44764;SDS011;30484;52.382;5.260;2023-12-22T09:06:33;41.67;;;4.15;;
44764;SDS011;30484;52.382;5.260;2023-12-22T09:09:03;30.70;;;4.53;;
44764;SDS011;30484;52.382;5.260;2023-12-22T09:11:31;37.60;;;4.97;;
44764;SDS011;30484;52.382;5.260;2023-12-22T09:13:59;33.50;;;4.55;;
44764;SDS011;30484;52.382;5.260;2023-12-22T09:16:27;32.83;;;4.40;;
44764;SDS011;30484;52.382;5.260;2023-12-22T09:18:55;22.55;;;3.72;;
44764;SDS011;30484;52.382;5.260;2023-12-22T09:21:24;21.25;;;3.13;;
44764;SDS011;30484;52.382;5.260;2023-12-22T09:23:52;24.45;;;3.90;;
44764;SDS011;30484;52.382;5.260;2023-12-22T09:26:22;23.30;;;3.83;;
44764;SDS011;30484;52.382;5.260;2023-12-22T09:28:52;18.33;;;3.15;;
44764;SDS011;30484;52.382;5.260;2023-12-22T09:31:22;21.08;;;3.25;;
44764;SDS011;30484;52.382;5.260;2023-12-22T09:33:50;23.23;;;3.22;;
44764;SDS011;30484;52.382;5.260;2023-12-22T09:36:19;20.58;;;2.78;;
44764;SDS011;30484;52.382;5.260;2023-12-22T09:38:47;32.55;;;3.38;;
44764;SDS011;30484;52.382;5.260;2023-12-22T09:41:15;29.58;;;3.22;;
44764;SDS011;30484;52.382;5.260;2023-12-22T09:43:45;16.17;;;1.95;;
44764;SDS011;30484;52.382;5.260;2023-12-22T09:46:16;18.75;;;2.30;;
44764;SDS011;30484;52.382;5.260;2023-12-22T09:51:18;21.98;;;2.42;;
44764;SDS011;30484;52.382;5.260;2023-12-22T09:53:47;21.98;;;2.72;;
44764;SDS011;30484;52.382;5.260;2023-12-22T09:56:16;20.02;;;2.53;;
44764;SDS011;30484;52.382;5.260;2023-12-22T09:58:47;20.20;;;2.50;;
44764;SDS011;30484;52.382;5.260;2023-12-22T10:01:19;25.17;;;2.88;;
44764;SDS011;30484;52.382;5.260;2023-12-22T10:03:49;26.23;;;3.45;;
44764;SDS011;30484;52.382;5.260;2023-12-22T10:06:18;25.02;;;2.95;;
44764;SDS011;30484;52.382;5.260;2023-12-22T10:08:46;26.58;;;2.58;;
44764;SDS011;30484;52.382;5.260;2023-12-22T10:11:17;25.08;;;2.70;;
44764;SDS011;30484;52.382;5.260;2023-12-22T10:13:49;26.02;;;3.15;;
44764;SDS011;30484;52.382;5.260;2023-12-22T10:16:20;23.08;;;3.30;;
44764;SDS011;30484;52.382;5.260;2023-12-22T10:18:49;29.48;;;3.75;;
44764;SDS011;30484;52.382;5.260;2023-12-22T10:21:18;23.10;;;2.38;;
44764;SDS011;30484;52.382;5.260;2023-12-22T10:23:46;23.65;;;3.50;;
44764;SDS011;30484;52.382;5.260;2023-12-22T10:26:14;28.35;;;3.15;;
44764;SDS011;30484;52.382;5.260;2023-12-22T10:28:43;33.10;;;3.38;;
44764;SDS011;30484;52.382;5.260;2023-12-22T10:31:15;25.70;;;2.60;;
44764;SDS011;30484;52.382;5.260;2023-12-22T10:33:44;27.30;;;3.70;;
44764;SDS011;30484;52.382;5.260;2023-12-22T10:36:12;21.92;;;3.08;;
44764;SDS011;30484;52.382;5.260;2023-12-22T10:38:41;24.95;;;3.00;;
44764;SDS011;30484;52.382;5.260;2023-12-22T10:41:11;20.58;;;3.05;;
44764;SDS011;30484;52.382;5.260;2023-12-22T10:43:39;21.58;;;2.55;;
44764;SDS011;30484;52.382;5.260;2023-12-22T10:46:08;18.38;;;2.53;;
44764;SDS011;30484;52.382;5.260;2023-12-22T10:48:39;23.60;;;2.60;;
44764;SDS011;30484;52.382;5.260;2023-12-22T10:51:08;16.77;;;2.45;;
44764;SDS011;30484;52.382;5.260;2023-12-22T10:53:40;21.40;;;2.97;;
44764;SDS011;30484;52.382;5.260;2023-12-22T10:56:09;12.82;;;2.10;;
44764;SDS011;30484;52.382;5.260;2023-12-22T10:58:38;19.77;;;2.58;;
44764;SDS011;30484;52.382;5.260;2023-12-22T11:01:07;21.00;;;2.50;;
44764;SDS011;30484;52.382;5.260;2023-12-22T11:03:37;26.92;;;2.90;;
44764;SDS011;30484;52.382;5.260;2023-12-22T11:06:12;17.60;;;2.55;;
44764;SDS011;30484;52.382;5.260;2023-12-22T11:08:43;16.00;;;2.53;;
44764;SDS011;30484;52.382;5.260;2023-12-22T11:11:15;20.35;;;2.53;;
44764;SDS011;30484;52.382;5.260;2023-12-22T11:13:53;20.02;;;2.30;;
44764;SDS011;30484;52.382;5.260;2023-12-22T11:16:24;29.60;;;2.58;;
44764;SDS011;30484;52.382;5.260;2023-12-22T11:18:56;20.90;;;2.63;;
44764;SDS011;30484;52.382;5.260;2023-12-22T11:21:26;25.90;;;2.83;;
44764;SDS011;30484;52.382;5.260;2023-12-22T11:23:55;21.15;;;2.45;;
44764;SDS011;30484;52.382;5.260;2023-12-22T11:26:24;24.40;;;2.85;;
44764;SDS011;30484;52.382;5.260;2023-12-22T11:28:53;24.60;;;2.30;;
44764;SDS011;30484;52.382;5.260;2023-12-22T11:31:22;22.15;;;3.30;;
44764;SDS011;30484;52.382;5.260;2023-12-22T11:33:53;20.35;;;2.13;;
44764;SDS011;30484;52.382;5.260;2023-12-22T11:36:37;13.90;;;2.33;;
44764;SDS011;30484;52.382;5.260;2023-12-22T11:39:07;22.17;;;2.75;;
44764;SDS011;30484;52.382;5.260;2023-12-22T11:41:35;23.92;;;2.92;;
44764;SDS011;30484;52.382;5.260;2023-12-22T11:44:05;22.80;;;3.00;;
44764;SDS011;30484;52.382;5.260;2023-12-22T11:46:34;21.00;;;2.63;;
44764;SDS011;30484;52.382;5.260;2023-12-22T11:49:04;19.17;;;2.45;;
44764;SDS011;30484;52.382;5.260;2023-12-22T11:51:34;18.00;;;2.13;;
44764;SDS011;30484;52.382;5.260;2023-12-22T11:54:02;19.80;;;3.10;;
44764;SDS011;30484;52.382;5.260;2023-12-22T11:56:31;26.95;;;2.70;;
44764;SDS011;30484;52.382;5.260;2023-12-22T11:59:03;22.67;;;3.00;;
44764;SDS011;30484;52.382;5.260;2023-12-22T12:01:34;25.58;;;2.78;;
44764;SDS011;30484;52.382;5.260;2023-12-22T12:04:07;21.75;;;2.70;;
44764;SDS011;30484;52.382;5.260;2023-12-22T12:06:35;19.00;;;2.30;;
44764;SDS011;30484;52.382;5.260;2023-12-22T12:09:05;21.63;;;2.88;;
44764;SDS011;30484;52.382;5.260;2023-12-22T12:14:41;22.75;;;2.83;;
44764;SDS011;30484;52.382;5.260;2023-12-22T12:17:11;19.83;;;2.25;;
44764;SDS011;30484;52.382;5.260;2023-12-22T12:19:48;20.80;;;2.83;;
44764;SDS011;30484;52.382;5.260;2023-12-22T12:22:18;34.58;;;3.35;;
44764;SDS011;30484;52.382;5.260;2023-12-22T12:24:51;16.85;;;3.00;;
44764;SDS011;30484;52.382;5.260;2023-12-22T12:27:21;15.98;;;2.70;;
44764;SDS011;30484;52.382;5.260;2023-12-22T12:29:49;19.35;;;2.33;;
44764;SDS011;30484;52.382;5.260;2023-12-22T12:32:19;22.90;;;2.40;;
44764;SDS011;30484;52.382;5.260;2023-12-22T12:34:52;22.38;;;2.35;;
44764;SDS011;30484;52.382;5.260;2023-12-22T12:37:23;16.10;;;2.30;;
44764;SDS011;30484;52.382;5.260;2023-12-22T12:39:52;19.00;;;2.92;;
44764;SDS011;30484;52.382;5.260;2023-12-22T12:42:26;21.08;;;2.75;;
44764;SDS011;30484;52.382;5.260;2023-12-22T12:44:57;23.77;;;2.72;;
44764;SDS011;30484;52.382;5.260;2023-12-22T12:47:25;19.27;;;2.50;;
44764;SDS011;30484;52.382;5.260;2023-12-22T12:49:58;17.80;;;2.45;;
44764;SDS011;30484;52.382;5.260;2023-12-22T12:52:28;23.80;;;3.33;;
44764;SDS011;30484;52.382;5.260;2023-12-22T12:54:56;34.00;;;4.00;;
44764;SDS011;30484;52.382;5.260;2023-12-22T12:57:26;19.25;;;2.22;;
44764;SDS011;30484;52.382;5.260;2023-12-22T12:59:55;22.52;;;2.67;;
44764;SDS011;30484;52.382;5.260;2023-12-22T13:02:24;24.23;;;3.17;;
44764;SDS011;30484;52.382;5.260;2023-12-22T13:04:53;23.48;;;3.75;;
44764;SDS011;30484;52.382;5.260;2023-12-22T13:07:26;31.90;;;2.80;;
44764;SDS011;30484;52.382;5.260;2023-12-22T13:09:55;22.70;;;3.00;;
44764;SDS011;30484;52.382;5.260;2023-12-22T13:12:26;28.08;;;4.13;;
44764;SDS011;30484;52.382;5.260;2023-12-22T13:14:54;28.50;;;3.65;;
44764;SDS011;30484;52.382;5.260;2023-12-22T13:17:28;21.08;;;3.03;;
44764;SDS011;30484;52.382;5.260;2023-12-22T13:19:57;22.58;;;3.10;;
44764;SDS011;30484;52.382;5.260;2023-12-22T13:22:28;24.00;;;2.97;;
44764;SDS011;30484;52.382;5.260;2023-12-22T13:24:56;21.48;;;3.03;;
44764;SDS011;30484;52.382;5.260;2023-12-22T13:27:26;17.60;;;2.35;;
44764;SDS011;30484;52.382;5.260;2023-12-22T13:29:54;14.07;;;2.75;;
44764;SDS011;30484;52.382;5.260;2023-12-22T13:32:22;16.08;;;2.70;;
44764;SDS011;30484;52.382;5.260;2023-12-22T13:34:51;13.88;;;2.30;;
44764;SDS011;30484;52.382;5.260;2023-12-22T13:37:21;25.05;;;3.05;;
44764;SDS011;30484;52.382;5.260;2023-12-22T13:39:53;19.60;;;2.47;;
44764;SDS011;30484;52.382;5.260;2023-12-22T13:42:22;15.50;;;2.83;;
44764;SDS011;30484;52.382;5.260;2023-12-22T13:44:51;18.55;;;2.90;;
44764;SDS011;30484;52.382;5.260;2023-12-22T13:47:19;30.20;;;3.30;;
44764;SDS011;30484;52.382;5.260;2023-12-22T13:49:48;27.33;;;2.70;;
44764;SDS011;30484;52.382;5.260;2023-12-22T13:52:26;20.13;;;3.03;;
44764;SDS011;30484;52.382;5.260;2023-12-22T13:55:00;22.75;;;2.80;;
44764;SDS011;30484;52.382;5.260;2023-12-22T13:57:29;24.23;;;3.65;;
44764;SDS011;30484;52.382;5.260;2023-12-22T13:59:57;27.52;;;2.92;;
44764;SDS011;30484;52.382;5.260;2023-12-22T14:02:25;29.58;;;3.38;;
44764;SDS011;30484;52.382;5.260;2023-12-22T14:04:54;29.60;;;3.47;;
44764;SDS011;30484;52.382;5.260;2023-12-22T14:07:22;27.98;;;3.17;;
44764;SDS011;30484;52.382;5.260;2023-12-22T14:09:50;21.58;;;2.95;;
44764;SDS011;30484;52.382;5.260;2023-12-22T14:12:20;18.65;;;2.70;;
44764;SDS011;30484;52.382;5.260;2023-12-22T14:14:57;22.98;;;3.30;;
44764;SDS011;30484;52.382;5.260;2023-12-22T14:17:26;32.42;;;3.03;;
44764;SDS011;30484;52.382;5.260;2023-12-22T14:19:57;24.85;;;3.53;;
44764;SDS011;30484;52.382;5.260;2023-12-22T14:22:25;29.02;;;3.45;;
44764;SDS011;30484;52.382;5.260;2023-12-22T14:24:53;23.98;;;3.58;;
44764;SDS011;30484;52.382;5.260;2023-12-22T14:27:24;27.98;;;3.08;;
44764;SDS011;30484;52.382;5.260;2023-12-22T14:29:52;18.92;;;3.05;;
44764;SDS011;30484;52.382;5.260;2023-12-22T14:32:20;27.00;;;3.20;;
44764;SDS011;30484;52.382;5.260;2023-12-22T14:34:49;24.65;;;3.30;;
44764;SDS011;30484;52.382;5.260;2023-12-22T14:37:18;30.25;;;3.25;;
44764;SDS011;30484;52.382;5.260;2023-12-22T14:39:46;24.70;;;2.92;;
44764;SDS011;30484;52.382;5.260;2023-12-22T14:42:14;33.28;;;3.75;;
44764;SDS011;30484;52.382;5.260;2023-12-22T14:44:44;34.92;;;4.07;;
44764;SDS011;30484;52.382;5.260;2023-12-22T14:47:13;28.35;;;3.50;;
44764;SDS011;30484;52.382;5.260;2023-12-22T14:49:41;27.65;;;3.63;;
44764;SDS011;30484;52.382;5.260;2023-12-22T14:52:10;26.63;;;4.10;;
44764;SDS011;30484;52.382;5.260;2023-12-22T14:54:38;31.35;;;3.58;;
44764;SDS011;30484;52.382;5.260;2023-12-22T14:57:06;29.77;;;3.75;;